sensor_id;sensor_type;location;lat;lon;timestamp;P1;durP1;ratioP1;P2;durP2;ratioP2
70838;SDS011;58464;52.298;4.852;2022-09-21T00:02:25;12.05;;;2.72;;
70838;SDS011;58464;52.298;4.852;2022-09-21T00:04:51;8.73;;;2.50;;
70838;SDS011;58464;52.298;4.852;2022-09-21T00:07:16;10.05;;;2.47;;
70838;SDS011;58464;52.298;4.852;2022-09-21T00:09:41;10.90;;;3.20;;
70838;SDS011;58464;52.298;4.852;2022-09-21T00:12:07;7.38;;;2.55;;
70838;SDS011;58464;52.298;4.852;2022-09-21T00:14:33;11.63;;;3.83;;
70838;SDS011;58464;52.298;4.852;2022-09-21T00:16:59;11.48;;;3.97;;
70838;SDS011;58464;52.298;4.852;2022-09-21T00:19:24;14.77;;;3.58;;
70838;SDS011;58464;52.298;4.852;2022-09-21T00:21:53;10.88;;;4.28;;
70838;SDS011;58464;52.298;4.852;2022-09-21T00:24:19;9.40;;;3.30;;
70838;SDS011;58464;52.298;4.852;2022-09-21T00:26:44;12.77;;;3.95;;
70838;SDS011;58464;52.298;4.852;2022-09-21T00:29:09;14.80;;;4.80;;
70838;SDS011;58464;52.298;4.852;2022-09-21T00:31:35;14.25;;;4.13;;
70838;SDS011;58464;52.298;4.852;2022-09-21T00:34:00;10.65;;;3.50;;
70838;SDS011;58464;52.298;4.852;2022-09-21T00:36:27;8.35;;;3.55;;
70838;SDS011;58464;52.298;4.852;2022-09-21T00:38:57;12.88;;;3.72;;
70838;SDS011;58464;52.298;4.852;2022-09-21T00:41:25;9.40;;;3.25;;
70838;SDS011;58464;52.298;4.852;2022-09-21T00:46:40;12.48;;;3.80;;
70838;SDS011;58464;52.298;4.852;2022-09-21T00:49:07;13.57;;;3.97;;
70838;SDS011;58464;52.298;4.852;2022-09-21T00:51:34;9.60;;;4.50;;
70838;SDS011;58464;52.298;4.852;2022-09-21T00:54:01;14.25;;;5.45;;
70838;SDS011;58464;52.298;4.852;2022-09-21T00:56:33;10.25;;;3.90;;
70838;SDS011;58464;52.298;4.852;2022-09-21T00:59:00;12.55;;;4.40;;
70838;SDS011;58464;52.298;4.852;2022-09-21T01:01:25;13.13;;;4.72;;
70838;SDS011;58464;52.298;4.852;2022-09-21T01:03:51;15.75;;;3.80;;
70838;SDS011;58464;52.298;4.852;2022-09-21T01:06:18;8.70;;;3.38;;
70838;SDS011;58464;52.298;4.852;2022-09-21T01:08:45;9.93;;;4.25;;
70838;SDS011;58464;52.298;4.852;2022-09-21T01:14:19;14.57;;;5.55;;
70838;SDS011;58464;52.298;4.852;2022-09-21T01:17:10;10.73;;;3.75;;
70838;SDS011;58464;52.298;4.852;2022-09-21T01:30:49;9.77;;;3.67;;
70838;SDS011;58464;52.298;4.852;2022-09-21T01:33:25;10.18;;;3.00;;
70838;SDS011;58464;52.298;4.852;2022-09-21T01:36:10;13.65;;;4.47;;
70838;SDS011;58464;52.298;4.852;2022-09-21T01:38:46;9.88;;;3.60;;
70838;SDS011;58464;52.298;4.852;2022-09-21T01:41:18;10.32;;;3.38;;
70838;SDS011;58464;52.298;4.852;2022-09-21T01:43:52;9.85;;;3.80;;
70838;SDS011;58464;52.298;4.852;2022-09-21T01:46:21;11.00;;;3.77;;
70838;SDS011;58464;52.298;4.852;2022-09-21T01:48:52;10.32;;;4.22;;
70838;SDS011;58464;52.298;4.852;2022-09-21T01:51:20;10.05;;;3.55;;
70838;SDS011;58464;52.298;4.852;2022-09-21T01:54:06;9.38;;;3.05;;
70838;SDS011;58464;52.298;4.852;2022-09-21T01:56:44;11.02;;;3.08;;
70838;SDS011;58464;52.298;4.852;2022-09-21T01:59:26;10.10;;;3.42;;
70838;SDS011;58464;52.298;4.852;2022-09-21T02:02:10;11.35;;;3.67;;
70838;SDS011;58464;52.298;4.852;2022-09-21T02:04:42;13.02;;;3.70;;
70838;SDS011;58464;52.298;4.852;2022-09-21T02:07:07;7.15;;;3.40;;
70838;SDS011;58464;52.298;4.852;2022-09-21T02:09:34;10.05;;;3.67;;
70838;SDS011;58464;52.298;4.852;2022-09-21T02:12:01;11.50;;;3.53;;
70838;SDS011;58464;52.298;4.852;2022-09-21T02:14:28;9.07;;;3.72;;
70838;SDS011;58464;52.298;4.852;2022-09-21T02:22:36;13.35;;;3.40;;
70838;SDS011;58464;52.298;4.852;2022-09-21T02:30:24;9.65;;;3.33;;
70838;SDS011;58464;52.298;4.852;2022-09-21T02:38:21;7.72;;;3.17;;
70838;SDS011;58464;52.298;4.852;2022-09-21T02:43:30;11.73;;;3.80;;
70838;SDS011;58464;52.298;4.852;2022-09-21T02:46:05;15.48;;;3.92;;
70838;SDS011;58464;52.298;4.852;2022-09-21T02:48:37;16.95;;;3.92;;
70838;SDS011;58464;52.298;4.852;2022-09-21T02:51:35;15.65;;;3.70;;
70838;SDS011;58464;52.298;4.852;2022-09-21T02:54:05;9.10;;;3.28;;
70838;SDS011;58464;52.298;4.852;2022-09-21T02:56:34;6.85;;;3.58;;
70838;SDS011;58464;52.298;4.852;2022-09-21T02:59:01;8.68;;;3.35;;
70838;SDS011;58464;52.298;4.852;2022-09-21T03:01:29;15.30;;;3.67;;
70838;SDS011;58464;52.298;4.852;2022-09-21T03:03:55;9.93;;;3.22;;
70838;SDS011;58464;52.298;4.852;2022-09-21T03:06:21;6.55;;;3.38;;
70838;SDS011;58464;52.298;4.852;2022-09-21T03:08:48;14.85;;;3.67;;
70838;SDS011;58464;52.298;4.852;2022-09-21T03:11:17;9.80;;;4.10;;
70838;SDS011;58464;52.298;4.852;2022-09-21T03:13:43;8.88;;;4.25;;
70838;SDS011;58464;52.298;4.852;2022-09-21T03:16:10;11.68;;;3.78;;
70838;SDS011;58464;52.298;4.852;2022-09-21T03:18:36;9.18;;;3.45;;
70838;SDS011;58464;52.298;4.852;2022-09-21T03:21:01;14.82;;;3.38;;
70838;SDS011;58464;52.298;4.852;2022-09-21T03:23:27;11.63;;;3.35;;
70838;SDS011;58464;52.298;4.852;2022-09-21T03:25:54;9.90;;;3.10;;
70838;SDS011;58464;52.298;4.852;2022-09-21T03:28:19;10.18;;;3.72;;
70838;SDS011;58464;52.298;4.852;2022-09-21T03:30:46;7.95;;;3.35;;
70838;SDS011;58464;52.298;4.852;2022-09-21T03:33:12;12.20;;;3.47;;
70838;SDS011;58464;52.298;4.852;2022-09-21T03:35:38;7.53;;;2.50;;
70838;SDS011;58464;52.298;4.852;2022-09-21T03:38:05;10.55;;;3.40;;
70838;SDS011;58464;52.298;4.852;2022-09-21T03:40:31;15.98;;;4.20;;
70838;SDS011;58464;52.298;4.852;2022-09-21T03:42:56;11.40;;;3.80;;
70838;SDS011;58464;52.298;4.852;2022-09-21T03:45:22;12.48;;;3.65;;
70838;SDS011;58464;52.298;4.852;2022-09-21T03:47:48;9.27;;;3.22;;
70838;SDS011;58464;52.298;4.852;2022-09-21T03:50:14;17.50;;;4.22;;
70838;SDS011;58464;52.298;4.852;2022-09-21T03:52:40;10.75;;;3.40;;
70838;SDS011;58464;52.298;4.852;2022-09-21T03:55:06;12.30;;;3.40;;
70838;SDS011;58464;52.298;4.852;2022-09-21T03:57:32;10.95;;;3.22;;
70838;SDS011;58464;52.298;4.852;2022-09-21T03:59:59;9.95;;;4.38;;
70838;SDS011;58464;52.298;4.852;2022-09-21T04:02:27;9.43;;;4.10;;
70838;SDS011;58464;52.298;4.852;2022-09-21T04:04:52;8.68;;;3.72;;
70838;SDS011;58464;52.298;4.852;2022-09-21T04:07:18;13.27;;;4.15;;
70838;SDS011;58464;52.298;4.852;2022-09-21T04:09:43;7.15;;;3.35;;
70838;SDS011;58464;52.298;4.852;2022-09-21T04:12:08;10.15;;;3.88;;
70838;SDS011;58464;52.298;4.852;2022-09-21T04:14:34;9.65;;;3.20;;
70838;SDS011;58464;52.298;4.852;2022-09-21T04:16:59;9.73;;;3.80;;
70838;SDS011;58464;52.298;4.852;2022-09-21T04:19:24;11.40;;;4.38;;
70838;SDS011;58464;52.298;4.852;2022-09-21T04:21:50;15.55;;;5.10;;
70838;SDS011;58464;52.298;4.852;2022-09-21T04:24:16;9.77;;;4.45;;
70838;SDS011;58464;52.298;4.852;2022-09-21T04:26:43;14.48;;;4.10;;
70838;SDS011;58464;52.298;4.852;2022-09-21T04:29:10;10.13;;;4.18;;
70838;SDS011;58464;52.298;4.852;2022-09-21T04:31:36;11.98;;;3.97;;
70838;SDS011;58464;52.298;4.852;2022-09-21T04:34:02;20.23;;;6.35;;
70838;SDS011;58464;52.298;4.852;2022-09-21T04:36:27;18.88;;;5.97;;
70838;SDS011;58464;52.298;4.852;2022-09-21T04:38:53;11.07;;;4.10;;
70838;SDS011;58464;52.298;4.852;2022-09-21T04:41:19;20.90;;;4.95;;
70838;SDS011;58464;52.298;4.852;2022-09-21T04:43:45;16.45;;;4.20;;
70838;SDS011;58464;52.298;4.852;2022-09-21T04:46:12;12.48;;;4.20;;
70838;SDS011;58464;52.298;4.852;2022-09-21T04:48:39;15.02;;;4.45;;
70838;SDS011;58464;52.298;4.852;2022-09-21T04:51:05;13.55;;;4.32;;
70838;SDS011;58464;52.298;4.852;2022-09-21T04:53:32;9.77;;;3.92;;
70838;SDS011;58464;52.298;4.852;2022-09-21T04:55:58;14.50;;;4.78;;
70838;SDS011;58464;52.298;4.852;2022-09-21T04:58:23;11.07;;;5.45;;
70838;SDS011;58464;52.298;4.852;2022-09-21T05:00:49;15.50;;;6.78;;
70838;SDS011;58464;52.298;4.852;2022-09-21T05:03:19;15.95;;;5.18;;
70838;SDS011;58464;52.298;4.852;2022-09-21T05:05:46;17.38;;;6.63;;
70838;SDS011;58464;52.298;4.852;2022-09-21T05:08:15;17.27;;;6.35;;
70838;SDS011;58464;52.298;4.852;2022-09-21T05:10:41;23.50;;;9.20;;
70838;SDS011;58464;52.298;4.852;2022-09-21T05:13:08;24.88;;;6.32;;
70838;SDS011;58464;52.298;4.852;2022-09-21T05:15:35;13.77;;;5.30;;
70838;SDS011;58464;52.298;4.852;2022-09-21T05:18:01;11.65;;;4.38;;
70838;SDS011;58464;52.298;4.852;2022-09-21T05:20:27;14.48;;;4.97;;
70838;SDS011;58464;52.298;4.852;2022-09-21T05:22:52;13.48;;;5.22;;
70838;SDS011;58464;52.298;4.852;2022-09-21T05:25:17;15.65;;;5.57;;
70838;SDS011;58464;52.298;4.852;2022-09-21T05:27:43;13.98;;;5.07;;
70838;SDS011;58464;52.298;4.852;2022-09-21T05:30:08;11.07;;;3.80;;
70838;SDS011;58464;52.298;4.852;2022-09-21T05:32:47;13.65;;;6.45;;
70838;SDS011;58464;52.298;4.852;2022-09-21T05:35:30;13.35;;;4.35;;
70838;SDS011;58464;52.298;4.852;2022-09-21T05:38:21;10.75;;;4.75;;
70838;SDS011;58464;52.298;4.852;2022-09-21T05:40:46;17.90;;;4.65;;
70838;SDS011;58464;52.298;4.852;2022-09-21T05:43:14;14.02;;;4.93;;
70838;SDS011;58464;52.298;4.852;2022-09-21T05:45:41;14.50;;;4.20;;
70838;SDS011;58464;52.298;4.852;2022-09-21T05:48:14;22.13;;;5.20;;
70838;SDS011;58464;52.298;4.852;2022-09-21T05:53:37;7.97;;;3.67;;
70838;SDS011;58464;52.298;4.852;2022-09-21T05:56:15;13.10;;;4.18;;
70838;SDS011;58464;52.298;4.852;2022-09-21T06:04:10;9.20;;;3.83;;
70838;SDS011;58464;52.298;4.852;2022-09-21T06:06:38;12.20;;;4.03;;
70838;SDS011;58464;52.298;4.852;2022-09-21T06:09:04;11.50;;;3.55;;
70838;SDS011;58464;52.298;4.852;2022-09-21T06:11:29;13.10;;;4.18;;
70838;SDS011;58464;52.298;4.852;2022-09-21T06:13:55;18.98;;;4.30;;
70838;SDS011;58464;52.298;4.852;2022-09-21T06:16:20;7.55;;;3.42;;
70838;SDS011;58464;52.298;4.852;2022-09-21T06:18:45;37.67;;;4.28;;
70838;SDS011;58464;52.298;4.852;2022-09-21T06:21:11;16.70;;;3.30;;
70838;SDS011;58464;52.298;4.852;2022-09-21T06:23:36;13.02;;;3.40;;
70838;SDS011;58464;52.298;4.852;2022-09-21T06:26:02;16.00;;;3.70;;
70838;SDS011;58464;52.298;4.852;2022-09-21T06:28:28;11.38;;;3.42;;
70838;SDS011;58464;52.298;4.852;2022-09-21T06:30:55;11.88;;;3.80;;
70838;SDS011;58464;52.298;4.852;2022-09-21T06:33:21;15.43;;;3.85;;
70838;SDS011;58464;52.298;4.852;2022-09-21T06:35:55;20.40;;;3.78;;
70838;SDS011;58464;52.298;4.852;2022-09-21T06:38:23;21.27;;;4.10;;
70838;SDS011;58464;52.298;4.852;2022-09-21T06:40:49;16.52;;;3.65;;
70838;SDS011;58464;52.298;4.852;2022-09-21T06:43:15;14.85;;;3.45;;
70838;SDS011;58464;52.298;4.852;2022-09-21T06:45:41;16.98;;;3.78;;
70838;SDS011;58464;52.298;4.852;2022-09-21T06:48:06;17.88;;;4.15;;
70838;SDS011;58464;52.298;4.852;2022-09-21T06:50:32;9.73;;;3.38;;
70838;SDS011;58464;52.298;4.852;2022-09-21T06:52:59;12.60;;;3.45;;
70838;SDS011;58464;52.298;4.852;2022-09-21T06:55:24;16.70;;;3.20;;
70838;SDS011;58464;52.298;4.852;2022-09-21T06:57:50;14.93;;;3.03;;
70838;SDS011;58464;52.298;4.852;2022-09-21T07:00:16;18.55;;;3.47;;
70838;SDS011;58464;52.298;4.852;2022-09-21T07:02:44;7.70;;;2.97;;
70838;SDS011;58464;52.298;4.852;2022-09-21T07:05:10;14.50;;;3.60;;
70838;SDS011;58464;52.298;4.852;2022-09-21T07:07:36;9.38;;;3.55;;
70838;SDS011;58464;52.298;4.852;2022-09-21T07:10:01;15.70;;;2.88;;
70838;SDS011;58464;52.298;4.852;2022-09-21T07:12:27;11.55;;;2.80;;
70838;SDS011;58464;52.298;4.852;2022-09-21T07:14:53;10.20;;;3.10;;
70838;SDS011;58464;52.298;4.852;2022-09-21T07:17:19;10.00;;;3.25;;
70838;SDS011;58464;52.298;4.852;2022-09-21T07:19:45;9.23;;;2.63;;
70838;SDS011;58464;52.298;4.852;2022-09-21T07:22:11;12.18;;;3.25;;
70838;SDS011;58464;52.298;4.852;2022-09-21T07:24:36;10.52;;;3.00;;
70838;SDS011;58464;52.298;4.852;2022-09-21T07:27:02;10.32;;;2.83;;
70838;SDS011;58464;52.298;4.852;2022-09-21T07:29:27;10.80;;;2.35;;
70838;SDS011;58464;52.298;4.852;2022-09-21T07:31:53;10.18;;;2.72;;
70838;SDS011;58464;52.298;4.852;2022-09-21T07:34:18;10.70;;;3.53;;
70838;SDS011;58464;52.298;4.852;2022-09-21T07:36:44;7.22;;;2.40;;
70838;SDS011;58464;52.298;4.852;2022-09-21T07:39:09;11.25;;;3.10;;
70838;SDS011;58464;52.298;4.852;2022-09-21T07:41:35;12.02;;;3.28;;
70838;SDS011;58464;52.298;4.852;2022-09-21T07:44:01;8.65;;;2.80;;
70838;SDS011;58464;52.298;4.852;2022-09-21T07:46:27;11.95;;;2.42;;
70838;SDS011;58464;52.298;4.852;2022-09-21T07:48:52;7.00;;;2.45;;
70838;SDS011;58464;52.298;4.852;2022-09-21T07:51:18;8.20;;;2.30;;
70838;SDS011;58464;52.298;4.852;2022-09-21T07:53:44;19.75;;;2.63;;
70838;SDS011;58464;52.298;4.852;2022-09-21T07:56:10;15.00;;;2.47;;
70838;SDS011;58464;52.298;4.852;2022-09-21T07:58:38;13.20;;;2.20;;
70838;SDS011;58464;52.298;4.852;2022-09-21T08:01:23;9.18;;;2.17;;
70838;SDS011;58464;52.298;4.852;2022-09-21T08:03:49;5.15;;;1.48;;
70838;SDS011;58464;52.298;4.852;2022-09-21T08:06:16;8.57;;;1.83;;
70838;SDS011;58464;52.298;4.852;2022-09-21T08:08:42;7.63;;;1.30;;
70838;SDS011;58464;52.298;4.852;2022-09-21T08:11:08;4.50;;;1.25;;
70838;SDS011;58464;52.298;4.852;2022-09-21T08:13:35;9.00;;;1.40;;
70838;SDS011;58464;52.298;4.852;2022-09-21T08:16:02;9.98;;;2.13;;
70838;SDS011;58464;52.298;4.852;2022-09-21T08:18:28;8.88;;;1.40;;
70838;SDS011;58464;52.298;4.852;2022-09-21T08:20:58;6.80;;;1.20;;
70838;SDS011;58464;52.298;4.852;2022-09-21T08:23:24;8.18;;;1.70;;
70838;SDS011;58464;52.298;4.852;2022-09-21T08:25:56;9.55;;;1.25;;
70838;SDS011;58464;52.298;4.852;2022-09-21T08:28:28;6.82;;;1.58;;
70838;SDS011;58464;52.298;4.852;2022-09-21T08:31:04;6.80;;;1.27;;
70838;SDS011;58464;52.298;4.852;2022-09-21T08:33:32;3.58;;;0.98;;
70838;SDS011;58464;52.298;4.852;2022-09-21T08:35:59;10.02;;;1.65;;
70838;SDS011;58464;52.298;4.852;2022-09-21T08:38:25;8.90;;;1.35;;
70838;SDS011;58464;52.298;4.852;2022-09-21T08:40:56;13.25;;;1.40;;
70838;SDS011;58464;52.298;4.852;2022-09-21T08:43:32;6.72;;;1.42;;
70838;SDS011;58464;52.298;4.852;2022-09-21T08:46:04;6.18;;;1.63;;
70838;SDS011;58464;52.298;4.852;2022-09-21T08:48:34;9.27;;;1.17;;
70838;SDS011;58464;52.298;4.852;2022-09-21T08:51:06;5.82;;;1.48;;
70838;SDS011;58464;52.298;4.852;2022-09-21T08:53:37;8.02;;;1.13;;
70838;SDS011;58464;52.298;4.852;2022-09-21T08:56:13;5.68;;;1.00;;
70838;SDS011;58464;52.298;4.852;2022-09-21T08:58:39;6.97;;;1.15;;
70838;SDS011;58464;52.298;4.852;2022-09-21T09:09:29;6.03;;;1.70;;
70838;SDS011;58464;52.298;4.852;2022-09-21T09:17:59;9.07;;;1.90;;
70838;SDS011;58464;52.298;4.852;2022-09-21T09:20:35;5.95;;;1.67;;
70838;SDS011;58464;52.298;4.852;2022-09-21T09:26:05;3.83;;;1.20;;
70838;SDS011;58464;52.298;4.852;2022-09-21T09:28:46;5.20;;;1.17;;
70838;SDS011;58464;52.298;4.852;2022-09-21T09:31:24;5.22;;;1.00;;
70838;SDS011;58464;52.298;4.852;2022-09-21T09:37:00;9.20;;;1.30;;
70838;SDS011;58464;52.298;4.852;2022-09-21T09:39:35;6.45;;;0.98;;
70838;SDS011;58464;52.298;4.852;2022-09-21T09:48:13;4.82;;;1.17;;
70838;SDS011;58464;52.298;4.852;2022-09-21T09:50:19;6.45;;;1.13;;
70838;SDS011;58464;52.298;4.852;2022-09-21T09:52:51;5.30;;;1.65;;
70838;SDS011;58464;52.298;4.852;2022-09-21T09:55:22;5.75;;;1.27;;
70838;SDS011;58464;52.298;4.852;2022-09-21T09:57:55;6.82;;;1.02;;
70838;SDS011;58464;52.298;4.852;2022-09-21T10:00:22;4.30;;;1.10;;
70838;SDS011;58464;52.298;4.852;2022-09-21T10:02:48;3.10;;;0.50;;
70838;SDS011;58464;52.298;4.852;2022-09-21T10:05:19;6.45;;;1.10;;
70838;SDS011;58464;52.298;4.852;2022-09-21T10:08:02;8.43;;;1.35;;
70838;SDS011;58464;52.298;4.852;2022-09-21T10:13:01;4.40;;;0.90;;
70838;SDS011;58464;52.298;4.852;2022-09-21T10:15:49;10.32;;;1.52;;
70838;SDS011;58464;52.298;4.852;2022-09-21T10:18:23;8.30;;;1.63;;
70838;SDS011;58464;52.298;4.852;2022-09-21T10:21:43;5.73;;;1.30;;
70838;SDS011;58464;52.298;4.852;2022-09-21T10:24:05;7.95;;;0.80;;
70838;SDS011;58464;52.298;4.852;2022-09-21T10:31:55;4.25;;;1.40;;
70838;SDS011;58464;52.298;4.852;2022-09-21T10:34:30;8.25;;;1.15;;
70838;SDS011;58464;52.298;4.852;2022-09-21T10:36:57;8.63;;;1.27;;
70838;SDS011;58464;52.298;4.852;2022-09-21T10:44:36;8.68;;;1.60;;
70838;SDS011;58464;52.298;4.852;2022-09-21T10:49:53;8.45;;;1.17;;
70838;SDS011;58464;52.298;4.852;2022-09-21T10:52:21;10.10;;;2.47;;
70838;SDS011;58464;52.298;4.852;2022-09-21T10:54:50;4.25;;;1.02;;
70838;SDS011;58464;52.298;4.852;2022-09-21T10:57:19;7.50;;;1.60;;
70838;SDS011;58464;52.298;4.852;2022-09-21T10:59:47;10.07;;;1.67;;
70838;SDS011;58464;52.298;4.852;2022-09-21T11:05:13;6.82;;;1.10;;
70838;SDS011;58464;52.298;4.852;2022-09-21T11:07:42;6.65;;;1.65;;
70838;SDS011;58464;52.298;4.852;2022-09-21T11:10:22;9.57;;;2.07;;
70838;SDS011;58464;52.298;4.852;2022-09-21T11:16:09;5.63;;;1.40;;
70838;SDS011;58464;52.298;4.852;2022-09-21T11:24:12;4.63;;;1.00;;
70838;SDS011;58464;52.298;4.852;2022-09-21T11:26:49;10.35;;;1.50;;
70838;SDS011;58464;52.298;4.852;2022-09-21T11:29:47;9.23;;;1.92;;
70838;SDS011;58464;52.298;4.852;2022-09-21T11:37:46;5.22;;;0.93;;
70838;SDS011;58464;52.298;4.852;2022-09-21T11:40:42;7.53;;;1.10;;
70838;SDS011;58464;52.298;4.852;2022-09-21T11:46:19;7.30;;;1.20;;
70838;SDS011;58464;52.298;4.852;2022-09-21T12:00:16;6.85;;;1.20;;
70838;SDS011;58464;52.298;4.852;2022-09-21T12:14:06;4.53;;;1.00;;
70838;SDS011;58464;52.298;4.852;2022-09-21T12:22:35;4.47;;;0.93;;
70838;SDS011;58464;52.298;4.852;2022-09-21T12:25:11;6.82;;;1.25;;
70838;SDS011;58464;52.298;4.852;2022-09-21T12:27:50;2.22;;;0.88;;
70838;SDS011;58464;52.298;4.852;2022-09-21T12:30:38;5.90;;;1.17;;
70838;SDS011;58464;52.298;4.852;2022-09-21T12:33:11;7.32;;;1.42;;
70838;SDS011;58464;52.298;4.852;2022-09-21T12:35:52;2.63;;;0.80;;
70838;SDS011;58464;52.298;4.852;2022-09-21T12:38:27;3.85;;;0.70;;
70838;SDS011;58464;52.298;4.852;2022-09-21T12:43:47;3.15;;;0.77;;
70838;SDS011;58464;52.298;4.852;2022-09-21T12:46:21;5.88;;;1.40;;
70838;SDS011;58464;52.298;4.852;2022-09-21T12:48:54;3.08;;;1.10;;
70838;SDS011;58464;52.298;4.852;2022-09-21T12:53:49;7.10;;;1.50;;
70838;SDS011;58464;52.298;4.852;2022-09-21T12:59:47;5.63;;;1.00;;
70838;SDS011;58464;52.298;4.852;2022-09-21T13:05:18;6.13;;;1.33;;
70838;SDS011;58464;52.298;4.852;2022-09-21T13:10:21;7.68;;;1.55;;
70838;SDS011;58464;52.298;4.852;2022-09-21T13:12:57;8.00;;;2.15;;
70838;SDS011;58464;52.298;4.852;2022-09-21T13:15:29;8.73;;;1.00;;
70838;SDS011;58464;52.298;4.852;2022-09-21T13:18:01;5.25;;;1.25;;
70838;SDS011;58464;52.298;4.852;2022-09-21T13:20:36;4.22;;;0.70;;
70838;SDS011;58464;52.298;4.852;2022-09-21T13:23:04;2.65;;;0.95;;
70838;SDS011;58464;52.298;4.852;2022-09-21T13:25:38;3.58;;;1.00;;
70838;SDS011;58464;52.298;4.852;2022-09-21T13:30:48;5.35;;;1.08;;
70838;SDS011;58464;52.298;4.852;2022-09-21T13:33:39;7.10;;;1.05;;
70838;SDS011;58464;52.298;4.852;2022-09-21T13:36:29;6.88;;;2.67;;
70838;SDS011;58464;52.298;4.852;2022-09-21T13:39:12;3.63;;;0.85;;
70838;SDS011;58464;52.298;4.852;2022-09-21T13:41:44;2.55;;;0.70;;
70838;SDS011;58464;52.298;4.852;2022-09-21T13:44:52;2.97;;;1.30;;
70838;SDS011;58464;52.298;4.852;2022-09-21T13:47:05;5.70;;;1.60;;
70838;SDS011;58464;52.298;4.852;2022-09-21T13:49:42;7.68;;;0.90;;
70838;SDS011;58464;52.298;4.852;2022-09-21T14:02:35;6.53;;;1.00;;
70838;SDS011;58464;52.298;4.852;2022-09-21T14:05:08;10.35;;;0.80;;
70838;SDS011;58464;52.298;4.852;2022-09-21T14:08:19;3.15;;;0.80;;
70838;SDS011;58464;52.298;4.852;2022-09-21T14:13:31;2.77;;;0.93;;
70838;SDS011;58464;52.298;4.852;2022-09-21T14:21:39;2.92;;;1.10;;
70838;SDS011;58464;52.298;4.852;2022-09-21T14:24:33;2.33;;;0.75;;
70838;SDS011;58464;52.298;4.852;2022-09-21T14:27:14;6.97;;;1.33;;
70838;SDS011;58464;52.298;4.852;2022-09-21T14:29:52;5.65;;;1.15;;
70838;SDS011;58464;52.298;4.852;2022-09-21T14:32:24;6.35;;;1.60;;
70838;SDS011;58464;52.298;4.852;2022-09-21T14:34:54;5.93;;;1.08;;
70838;SDS011;58464;52.298;4.852;2022-09-21T14:40:05;4.03;;;0.70;;
70838;SDS011;58464;52.298;4.852;2022-09-21T14:42:45;3.13;;;0.68;;
70838;SDS011;58464;52.298;4.852;2022-09-21T14:45:15;5.57;;;0.95;;
70838;SDS011;58464;52.298;4.852;2022-09-21T14:47:45;5.00;;;1.10;;
70838;SDS011;58464;52.298;4.852;2022-09-21T14:53:10;6.90;;;1.17;;
70838;SDS011;58464;52.298;4.852;2022-09-21T15:06:56;4.05;;;0.98;;
70838;SDS011;58464;52.298;4.852;2022-09-21T15:13:41;4.70;;;0.93;;
70838;SDS011;58464;52.298;4.852;2022-09-21T15:21:55;5.85;;;1.30;;
70838;SDS011;58464;52.298;4.852;2022-09-21T15:24:34;5.78;;;1.10;;
70838;SDS011;58464;52.298;4.852;2022-09-21T15:27:07;3.53;;;1.05;;
70838;SDS011;58464;52.298;4.852;2022-09-21T15:29:40;5.60;;;1.10;;
70838;SDS011;58464;52.298;4.852;2022-09-21T15:32:15;4.63;;;0.50;;
70838;SDS011;58464;52.298;4.852;2022-09-21T15:34:59;5.03;;;1.60;;
70838;SDS011;58464;52.298;4.852;2022-09-21T15:37:26;4.63;;;1.05;;
70838;SDS011;58464;52.298;4.852;2022-09-21T15:40:14;3.28;;;1.42;;
70838;SDS011;58464;52.298;4.852;2022-09-21T15:42:56;7.00;;;1.33;;
70838;SDS011;58464;52.298;4.852;2022-09-21T15:47:52;6.75;;;1.48;;
70838;SDS011;58464;52.298;4.852;2022-09-21T15:50:18;6.72;;;1.52;;
70838;SDS011;58464;52.298;4.852;2022-09-21T15:52:55;7.40;;;1.55;;
70838;SDS011;58464;52.298;4.852;2022-09-21T15:55:26;8.77;;;2.17;;
70838;SDS011;58464;52.298;4.852;2022-09-21T15:57:53;7.63;;;1.92;;
70838;SDS011;58464;52.298;4.852;2022-09-21T16:00:25;11.65;;;1.70;;
70838;SDS011;58464;52.298;4.852;2022-09-21T16:05:31;7.53;;;1.75;;
70838;SDS011;58464;52.298;4.852;2022-09-21T16:08:05;8.27;;;2.10;;
70838;SDS011;58464;52.298;4.852;2022-09-21T16:10:40;3.65;;;1.50;;
70838;SDS011;58464;52.298;4.852;2022-09-21T16:13:39;6.82;;;1.55;;
70838;SDS011;58464;52.298;4.852;2022-09-21T16:16:16;5.38;;;1.30;;
70838;SDS011;58464;52.298;4.852;2022-09-21T16:18:45;11.07;;;2.08;;
70838;SDS011;58464;52.298;4.852;2022-09-21T16:21:14;8.35;;;2.03;;
70838;SDS011;58464;52.298;4.852;2022-09-21T16:24:09;7.80;;;2.15;;
70838;SDS011;58464;52.298;4.852;2022-09-21T16:26:48;6.47;;;2.13;;
70838;SDS011;58464;52.298;4.852;2022-09-21T16:29:24;9.77;;;2.03;;
70838;SDS011;58464;52.298;4.852;2022-09-21T16:34:41;3.55;;;1.08;;
70838;SDS011;58464;52.298;4.852;2022-09-21T16:39:55;7.25;;;1.30;;
70838;SDS011;58464;52.298;4.852;2022-09-21T16:42:23;8.63;;;1.40;;
70838;SDS011;58464;52.298;4.852;2022-09-21T16:44:58;7.75;;;1.88;;
70838;SDS011;58464;52.298;4.852;2022-09-21T16:47:24;7.85;;;0.80;;
70838;SDS011;58464;52.298;4.852;2022-09-21T16:49:58;3.53;;;1.05;;
70838;SDS011;58464;52.298;4.852;2022-09-21T16:52:27;5.88;;;1.35;;
70838;SDS011;58464;52.298;4.852;2022-09-21T16:54:53;4.95;;;1.60;;
70838;SDS011;58464;52.298;4.852;2022-09-21T16:57:20;5.55;;;1.40;;
70838;SDS011;58464;52.298;4.852;2022-09-21T16:59:48;5.78;;;1.15;;
70838;SDS011;58464;52.298;4.852;2022-09-21T17:02:14;4.00;;;1.40;;
70838;SDS011;58464;52.298;4.852;2022-09-21T17:04:40;3.45;;;1.00;;
70838;SDS011;58464;52.298;4.852;2022-09-21T17:07:09;3.13;;;1.23;;
70838;SDS011;58464;52.298;4.852;2022-09-21T17:09:36;5.05;;;1.27;;
70838;SDS011;58464;52.298;4.852;2022-09-21T17:12:04;4.75;;;1.55;;
70838;SDS011;58464;52.298;4.852;2022-09-21T17:14:32;7.80;;;1.55;;
70838;SDS011;58464;52.298;4.852;2022-09-21T17:17:00;5.25;;;1.10;;
70838;SDS011;58464;52.298;4.852;2022-09-21T17:19:29;3.40;;;1.20;;
70838;SDS011;58464;52.298;4.852;2022-09-21T17:21:55;3.85;;;1.15;;
70838;SDS011;58464;52.298;4.852;2022-09-21T17:24:22;7.70;;;1.45;;
70838;SDS011;58464;52.298;4.852;2022-09-21T17:26:48;6.43;;;1.40;;
70838;SDS011;58464;52.298;4.852;2022-09-21T17:29:23;4.32;;;1.20;;
70838;SDS011;58464;52.298;4.852;2022-09-21T17:31:54;3.58;;;1.40;;
70838;SDS011;58464;52.298;4.852;2022-09-21T17:34:23;6.05;;;1.38;;
70838;SDS011;58464;52.298;4.852;2022-09-21T17:36:51;7.28;;;2.40;;
70838;SDS011;58464;52.298;4.852;2022-09-21T17:39:17;4.82;;;1.95;;
70838;SDS011;58464;52.298;4.852;2022-09-21T17:41:49;6.55;;;2.85;;
70838;SDS011;58464;52.298;4.852;2022-09-21T17:44:24;6.90;;;2.63;;
70838;SDS011;58464;52.298;4.852;2022-09-21T17:47:22;6.13;;;1.92;;
70838;SDS011;58464;52.298;4.852;2022-09-21T17:49:53;9.52;;;2.30;;
70838;SDS011;58464;52.298;4.852;2022-09-21T17:52:20;8.02;;;2.80;;
70838;SDS011;58464;52.298;4.852;2022-09-21T17:55:05;7.63;;;2.53;;
70838;SDS011;58464;52.298;4.852;2022-09-21T18:00:33;5.05;;;1.52;;
70838;SDS011;58464;52.298;4.852;2022-09-21T18:03:20;7.82;;;2.25;;
70838;SDS011;58464;52.298;4.852;2022-09-21T18:05:46;9.57;;;2.83;;
70838;SDS011;58464;52.298;4.852;2022-09-21T18:08:14;10.18;;;3.92;;
70838;SDS011;58464;52.298;4.852;2022-09-21T18:10:40;7.63;;;3.65;;
70838;SDS011;58464;52.298;4.852;2022-09-21T18:13:21;12.63;;;4.90;;
70838;SDS011;58464;52.298;4.852;2022-09-21T18:16:30;10.13;;;4.25;;
70838;SDS011;58464;52.298;4.852;2022-09-21T18:21:40;7.70;;;3.63;;
70838;SDS011;58464;52.298;4.852;2022-09-21T18:24:11;11.30;;;3.22;;
70838;SDS011;58464;52.298;4.852;2022-09-21T18:27:05;9.10;;;3.28;;
70838;SDS011;58464;52.298;4.852;2022-09-21T18:29:34;10.35;;;3.92;;
70838;SDS011;58464;52.298;4.852;2022-09-21T18:32:08;14.38;;;4.30;;
70838;SDS011;58464;52.298;4.852;2022-09-21T18:40:56;8.18;;;2.75;;
70838;SDS011;58464;52.298;4.852;2022-09-21T18:46:16;13.85;;;3.53;;
70838;SDS011;58464;52.298;4.852;2022-09-21T18:51:21;7.55;;;3.00;;